Terminal Aerodrome Forecast
Issued by NWS

Home | Current Version | Previous Version | Text Only | Print | Product List | Glossary On
Versions: 1 2 3 4 5 6 7 8 9 10 11 12 13 14 15
233
FTUS46 KPDT 202320
TAFALW
TAF
KALW 202320Z 2100/2124 23018G30KT P6SM BKN070
     FM210300 25014G23KT P6SM SCT070 BKN100
     FM210800 18011KT P6SM SCT100 BKN200
     FM211800 17013KT P6SM -RA OVC050
     FM212100 18017G25KT P6SM -RA OVC035=

USA.gov is the U.S. government's official web portal to all federal, state and local government web resources and services.